Puerto del Rosario, Spain
Current Conditions -  °F | °C
As of 11:00 PM on Sunday 21 Dec 2014 (Local Time) from GCFV Reporting Station
Clear Clear  
Wind Chill: 66°   Ceiling: Unl
Heat Index: 66°   Visibility: 6mi
Dew Point: 59°   Wind: 18mph
Humidity: 78%   Direction: 40°NE
Pressure: 30.24"   Gusts: NA
Location:  28.5°N, 13.86°W
Report Text: GCFV 212300Z 04016KT CAVOK 19/15 Q1024
Loading
Personal Weather Stations






























Interactive Weather Map New forecast layout! Learn more

10-Day Weather Forecast

Advertisements
Track Severe Weather on mobile